sensor_id;sensor_type;location;lat;lon;timestamp;temperature;humidity
69938;DHT22;57248;47.320;15.998;2022-08-03T00:01:27;17.16;84.65
69938;DHT22;57248;47.320;15.998;2022-08-03T00:03:52;17.16;85.27
69938;DHT22;57248;47.320;15.998;2022-08-03T00:06:18;17.12;84.43
69938;DHT22;57248;47.320;15.998;2022-08-03T00:08:45;17.11;84.94
69938;DHT22;57248;47.320;15.998;2022-08-03T00:11:11;17.01;85.59
69938;DHT22;57248;47.320;15.998;2022-08-03T00:13:36;16.95;85.19
69938;DHT22;57248;47.320;15.998;2022-08-03T00:16:02;17.01;84.44
69938;DHT22;57248;47.320;15.998;2022-08-03T00:18:28;16.86;86.23
69938;DHT22;57248;47.320;15.998;2022-08-03T00:20:53;16.74;86.95
69938;DHT22;57248;47.320;15.998;2022-08-03T00:23:19;16.85;86.37
69938;DHT22;57248;47.320;15.998;2022-08-03T00:25:44;16.74;87.33
69938;DHT22;57248;47.320;15.998;2022-08-03T00:28:10;16.84;86.43
69938;DHT22;57248;47.320;15.998;2022-08-03T00:30:35;16.85;85.89
69938;DHT22;57248;47.320;15.998;2022-08-03T00:33:01;16.77;85.48
69938;DHT22;57248;47.320;15.998;2022-08-03T00:35:28;16.71;85.24
69938;DHT22;57248;47.320;15.998;2022-08-03T00:37:53;16.68;85.26
69938;DHT22;57248;47.320;15.998;2022-08-03T00:40:19;16.63;85.71
69938;DHT22;57248;47.320;15.998;2022-08-03T00:42:50;16.63;85.99
69938;DHT22;57248;47.320;15.998;2022-08-03T00:45:19;16.58;86.41
69938;DHT22;57248;47.320;15.998;2022-08-03T00:47:45;16.53;85.82
69938;DHT22;57248;47.320;15.998;2022-08-03T00:50:10;16.54;85.74
69938;DHT22;57248;47.320;15.998;2022-08-03T00:52:36;16.50;85.15
69938;DHT22;57248;47.320;15.998;2022-08-03T00:55:02;16.46;86.04
69938;DHT22;57248;47.320;15.998;2022-08-03T00:57:31;16.34;87.39
69938;DHT22;57248;47.320;15.998;2022-08-03T00:59:58;16.31;89.00
69938;DHT22;57248;47.320;15.998;2022-08-03T01:02:27;16.37;87.98
69938;DHT22;57248;47.320;15.998;2022-08-03T01:04:54;16.43;88.43
69938;DHT22;57248;47.320;15.998;2022-08-03T01:12:58;16.34;87.24
69938;DHT22;57248;47.320;15.998;2022-08-03T01:19:10;16.24;86.94
69938;DHT22;57248;47.320;15.998;2022-08-03T01:21:01;16.20;86.81
69938;DHT22;57248;47.320;15.998;2022-08-03T01:29:51;16.07;86.83
69938;DHT22;57248;47.320;15.998;2022-08-03T01:32:00;16.05;86.78
69938;DHT22;57248;47.320;15.998;2022-08-03T01:34:30;16.05;86.63
69938;DHT22;57248;47.320;15.998;2022-08-03T01:36:58;16.06;86.62
69938;DHT22;57248;47.320;15.998;2022-08-03T01:39:26;16.07;87.20
69938;DHT22;57248;47.320;15.998;2022-08-03T01:41:56;16.06;86.86
69938;DHT22;57248;47.320;15.998;2022-08-03T01:44:25;16.05;87.13
69938;DHT22;57248;47.320;15.998;2022-08-03T01:46:57;16.03;86.81
69938;DHT22;57248;47.320;15.998;2022-08-03T01:49:24;16.02;87.33
69938;DHT22;57248;47.320;15.998;2022-08-03T01:51:51;15.99;87.28
69938;DHT22;57248;47.320;15.998;2022-08-03T01:54:18;15.96;86.95
69938;DHT22;57248;47.320;15.998;2022-08-03T01:56:44;15.96;87.07
69938;DHT22;57248;47.320;15.998;2022-08-03T01:59:13;15.92;87.58
69938;DHT22;57248;47.320;15.998;2022-08-03T02:01:40;15.92;87.10
69938;DHT22;57248;47.320;15.998;2022-08-03T02:04:06;15.86;87.08
69938;DHT22;57248;47.320;15.998;2022-08-03T02:06:34;15.86;87.57
69938;DHT22;57248;47.320;15.998;2022-08-03T02:09:01;15.87;87.66
69938;DHT22;57248;47.320;15.998;2022-08-03T02:11:30;15.87;87.12
69938;DHT22;57248;47.320;15.998;2022-08-03T02:13:57;15.85;87.40
69938;DHT22;57248;47.320;15.998;2022-08-03T02:16:25;15.83;87.40
69938;DHT22;57248;47.320;15.998;2022-08-03T02:18:53;15.83;87.63
69938;DHT22;57248;47.320;15.998;2022-08-03T02:21:20;15.78;88.21
69938;DHT22;57248;47.320;15.998;2022-08-03T02:23:47;15.75;87.49
69938;DHT22;57248;47.320;15.998;2022-08-03T02:26:14;15.78;88.03
69938;DHT22;57248;47.320;15.998;2022-08-03T02:28:45;15.75;87.57
69938;DHT22;57248;47.320;15.998;2022-08-03T02:31:14;15.72;87.56
69938;DHT22;57248;47.320;15.998;2022-08-03T02:33:43;15.70;87.34
69938;DHT22;57248;47.320;15.998;2022-08-03T02:36:13;15.66;87.40
69938;DHT22;57248;47.320;15.998;2022-08-03T02:38:41;15.66;87.88
69938;DHT22;57248;47.320;15.998;2022-08-03T02:41:14;15.69;88.04
69938;DHT22;57248;47.320;15.998;2022-08-03T02:43:40;15.68;87.83
69938;DHT22;57248;47.320;15.998;2022-08-03T02:46:08;15.66;88.10
69938;DHT22;57248;47.320;15.998;2022-08-03T02:48:35;15.73;88.39
69938;DHT22;57248;47.320;15.998;2022-08-03T02:51:03;15.76;88.71
69938;DHT22;57248;47.320;15.998;2022-08-03T02:53:29;15.81;88.32
69938;DHT22;57248;47.320;15.998;2022-08-03T02:55:56;15.82;88.77
69938;DHT22;57248;47.320;15.998;2022-08-03T02:58:23;15.78;88.48
69938;DHT22;57248;47.320;15.998;2022-08-03T03:00:51;15.81;88.53
69938;DHT22;57248;47.320;15.998;2022-08-03T03:03:17;15.75;89.62
69938;DHT22;57248;47.320;15.998;2022-08-03T03:05:43;15.75;89.46
69938;DHT22;57248;47.320;15.998;2022-08-03T03:08:12;15.85;89.07
69938;DHT22;57248;47.320;15.998;2022-08-03T03:10:38;15.92;89.34
69938;DHT22;57248;47.320;15.998;2022-08-03T03:13:05;15.89;89.36
69938;DHT22;57248;47.320;15.998;2022-08-03T03:15:32;15.83;89.02
69938;DHT22;57248;47.320;15.998;2022-08-03T03:18:00;15.85;88.69
69938;DHT22;57248;47.320;15.998;2022-08-03T03:20:27;15.62;90.75
69938;DHT22;57248;47.320;15.998;2022-08-03T03:22:53;15.68;89.90
69938;DHT22;57248;47.320;15.998;2022-08-03T03:25:20;15.65;89.90
69938;DHT22;57248;47.320;15.998;2022-08-03T03:27:48;15.59;90.11
69938;DHT22;57248;47.320;15.998;2022-08-03T03:30:13;15.59;88.88
69938;DHT22;57248;47.320;15.998;2022-08-03T03:32:39;15.66;89.47
69938;DHT22;57248;47.320;15.998;2022-08-03T03:35:06;15.66;89.14
69938;DHT22;57248;47.320;15.998;2022-08-03T03:37:32;15.62;89.08
69938;DHT22;57248;47.320;15.998;2022-08-03T03:39:57;15.65;88.66
69938;DHT22;57248;47.320;15.998;2022-08-03T03:42:24;15.69;89.21
69938;DHT22;57248;47.320;15.998;2022-08-03T03:44:50;15.70;88.37
69938;DHT22;57248;47.320;15.998;2022-08-03T03:47:16;15.79;88.52
69938;DHT22;57248;47.320;15.998;2022-08-03T03:49:42;15.79;88.39
69938;DHT22;57248;47.320;15.998;2022-08-03T03:52:08;15.69;88.93
69938;DHT22;57248;47.320;15.998;2022-08-03T03:54:44;15.72;88.64
69938;DHT22;57248;47.320;15.998;2022-08-03T03:57:10;15.72;88.49
69938;DHT22;57248;47.320;15.998;2022-08-03T03:59:42;15.72;88.16
69938;DHT22;57248;47.320;15.998;2022-08-03T04:02:09;15.70;88.77
69938;DHT22;57248;47.320;15.998;2022-08-03T04:04:35;15.75;88.48
69938;DHT22;57248;47.320;15.998;2022-08-03T04:07:19;15.76;88.03
69938;DHT22;57248;47.320;15.998;2022-08-03T04:10:13;15.79;88.04
69938;DHT22;57248;47.320;15.998;2022-08-03T04:12:59;15.79;88.04
69938;DHT22;57248;47.320;15.998;2022-08-03T04:15:27;15.83;88.03
69938;DHT22;57248;47.320;15.998;2022-08-03T04:17:56;15.81;88.08
69938;DHT22;57248;47.320;15.998;2022-08-03T04:20:23;15.87;88.22
69938;DHT22;57248;47.320;15.998;2022-08-03T04:22:51;16.00;88.15
69938;DHT22;57248;47.320;15.998;2022-08-03T04:25:19;16.10;87.89
69938;DHT22;57248;47.320;15.998;2022-08-03T04:27:47;16.12;88.54
69938;DHT22;57248;47.320;15.998;2022-08-03T04:30:14;16.23;88.14
69938;DHT22;57248;47.320;15.998;2022-08-03T04:32:41;16.33;87.82
69938;DHT22;57248;47.320;15.998;2022-08-03T04:35:09;16.40;87.57
69938;DHT22;57248;47.320;15.998;2022-08-03T04:37:41;16.53;87.70
69938;DHT22;57248;47.320;15.998;2022-08-03T04:40:15;16.60;87.34
69938;DHT22;57248;47.320;15.998;2022-08-03T04:42:43;16.65;87.55
69938;DHT22;57248;47.320;15.998;2022-08-03T04:45:11;16.68;87.83
69938;DHT22;57248;47.320;15.998;2022-08-03T04:47:37;16.82;87.03
69938;DHT22;57248;47.320;15.998;2022-08-03T04:50:04;16.91;87.40
69938;DHT22;57248;47.320;15.998;2022-08-03T04:52:30;17.60;87.46
69938;DHT22;57248;47.320;15.998;2022-08-03T04:54:56;18.29;86.41
69938;DHT22;57248;47.320;15.998;2022-08-03T04:57:22;18.62;85.00
69938;DHT22;57248;47.320;15.998;2022-08-03T04:59:48;18.82;84.20
69938;DHT22;57248;47.320;15.998;2022-08-03T05:02:17;19.03;83.43
69938;DHT22;57248;47.320;15.998;2022-08-03T05:04:43;19.18;82.62
69938;DHT22;57248;47.320;15.998;2022-08-03T05:07:14;19.50;81.94
69938;DHT22;57248;47.320;15.998;2022-08-03T05:09:40;19.66;80.80
69938;DHT22;57248;47.320;15.998;2022-08-03T05:12:06;19.92;80.10
69938;DHT22;57248;47.320;15.998;2022-08-03T05:14:33;20.13;79.24
69938;DHT22;57248;47.320;15.998;2022-08-03T05:16:58;20.50;77.93
69938;DHT22;57248;47.320;15.998;2022-08-03T05:19:24;20.64;77.29
69938;DHT22;57248;47.320;15.998;2022-08-03T05:21:50;21.19;75.54
69938;DHT22;57248;47.320;15.998;2022-08-03T05:24:15;21.42;74.99
69938;DHT22;57248;47.320;15.998;2022-08-03T05:26:41;21.46;74.55
69938;DHT22;57248;47.320;15.998;2022-08-03T05:29:06;21.64;74.02
69938;DHT22;57248;47.320;15.998;2022-08-03T05:31:32;21.84;73.42
69938;DHT22;57248;47.320;15.998;2022-08-03T05:33:58;22.52;71.93
69938;DHT22;57248;47.320;15.998;2022-08-03T05:36:23;22.69;70.99
69938;DHT22;57248;47.320;15.998;2022-08-03T05:38:49;22.90;69.67
69938;DHT22;57248;47.320;15.998;2022-08-03T05:41:14;23.23;68.44
69938;DHT22;57248;47.320;15.998;2022-08-03T05:43:40;23.11;68.35
69938;DHT22;57248;47.320;15.998;2022-08-03T05:46:05;23.57;67.59
69938;DHT22;57248;47.320;15.998;2022-08-03T05:48:31;23.23;68.21
69938;DHT22;57248;47.320;15.998;2022-08-03T05:50:58;23.14;68.18
69938;DHT22;57248;47.320;15.998;2022-08-03T05:53:23;23.03;69.56
69938;DHT22;57248;47.320;15.998;2022-08-03T05:55:50;22.95;70.64
69938;DHT22;57248;47.320;15.998;2022-08-03T05:58:16;23.00;70.26
69938;DHT22;57248;47.320;15.998;2022-08-03T06:00:41;23.96;68.73
69938;DHT22;57248;47.320;15.998;2022-08-03T06:03:07;24.01;66.87
69938;DHT22;57248;47.320;15.998;2022-08-03T06:05:32;24.40;65.74
69938;DHT22;57248;47.320;15.998;2022-08-03T06:08:02;24.56;65.73
69938;DHT22;57248;47.320;15.998;2022-08-03T06:10:27;24.44;66.07
69938;DHT22;57248;47.320;15.998;2022-08-03T06:12:53;24.10;66.62
69938;DHT22;57248;47.320;15.998;2022-08-03T06:15:18;24.12;66.33
69938;DHT22;57248;47.320;15.998;2022-08-03T06:17:48;24.13;65.84
69938;DHT22;57248;47.320;15.998;2022-08-03T06:20:18;24.55;65.92
69938;DHT22;57248;47.320;15.998;2022-08-03T06:22:44;24.77;64.69
69938;DHT22;57248;47.320;15.998;2022-08-03T06:25:10;24.81;63.64
69938;DHT22;57248;47.320;15.998;2022-08-03T06:27:35;24.39;66.11
69938;DHT22;57248;47.320;15.998;2022-08-03T06:30:05;24.25;67.41
69938;DHT22;57248;47.320;15.998;2022-08-03T06:32:32;24.10;68.24
69938;DHT22;57248;47.320;15.998;2022-08-03T06:34:58;23.94;69.23
69938;DHT22;57248;47.320;15.998;2022-08-03T06:37:24;24.10;68.41
69938;DHT22;57248;47.320;15.998;2022-08-03T06:39:51;24.10;67.94
69938;DHT22;57248;47.320;15.998;2022-08-03T06:42:17;24.05;67.24
69938;DHT22;57248;47.320;15.998;2022-08-03T06:44:43;23.92;66.98
69938;DHT22;57248;47.320;15.998;2022-08-03T06:47:08;24.08;66.83
69938;DHT22;57248;47.320;15.998;2022-08-03T06:49:34;24.40;65.87
69938;DHT22;57248;47.320;15.998;2022-08-03T06:51:59;24.66;64.61
69938;DHT22;57248;47.320;15.998;2022-08-03T06:54:25;24.76;63.78
69938;DHT22;57248;47.320;15.998;2022-08-03T06:56:51;24.68;64.08
69938;DHT22;57248;47.320;15.998;2022-08-03T06:59:16;24.92;63.30
69938;DHT22;57248;47.320;15.998;2022-08-03T07:01:42;24.97;63.66
69938;DHT22;57248;47.320;15.998;2022-08-03T07:04:08;24.86;64.56
69938;DHT22;57248;47.320;15.998;2022-08-03T07:06:33;24.87;63.24
69938;DHT22;57248;47.320;15.998;2022-08-03T07:08:59;24.81;63.37
69938;DHT22;57248;47.320;15.998;2022-08-03T07:11:24;24.76;63.88
69938;DHT22;57248;47.320;15.998;2022-08-03T07:13:50;25.07;62.31
69938;DHT22;57248;47.320;15.998;2022-08-03T07:16:15;25.14;63.07
69938;DHT22;57248;47.320;15.998;2022-08-03T07:18:41;24.71;62.68
69938;DHT22;57248;47.320;15.998;2022-08-03T07:21:06;25.04;62.07
69938;DHT22;57248;47.320;15.998;2022-08-03T07:23:34;25.25;61.04
69938;DHT22;57248;47.320;15.998;2022-08-03T07:25:59;25.58;59.10
69938;DHT22;57248;47.320;15.998;2022-08-03T07:28:25;25.79;59.71
69938;DHT22;57248;47.320;15.998;2022-08-03T07:30:50;26.00;58.02
69938;DHT22;57248;47.320;15.998;2022-08-03T07:33:16;26.30;59.92
69938;DHT22;57248;47.320;15.998;2022-08-03T07:35:41;26.79;58.13
69938;DHT22;57248;47.320;15.998;2022-08-03T07:38:07;27.36;57.89
69938;DHT22;57248;47.320;15.998;2022-08-03T07:40:32;27.65;54.50
69938;DHT22;57248;47.320;15.998;2022-08-03T07:42:59;27.91;50.51
69938;DHT22;57248;47.320;15.998;2022-08-03T07:45:24;28.28;50.53
69938;DHT22;57248;47.320;15.998;2022-08-03T07:47:50;28.69;49.18
69938;DHT22;57248;47.320;15.998;2022-08-03T07:50:16;28.41;51.27
69938;DHT22;57248;47.320;15.998;2022-08-03T07:52:41;28.48;49.36
69938;DHT22;57248;47.320;15.998;2022-08-03T07:55:15;29.48;48.26
69938;DHT22;57248;47.320;15.998;2022-08-03T07:57:41;29.39;46.55
69938;DHT22;57248;47.320;15.998;2022-08-03T08:00:20;29.41;45.47
69938;DHT22;57248;47.320;15.998;2022-08-03T08:02:46;29.66;44.39
69938;DHT22;57248;47.320;15.998;2022-08-03T08:05:12;28.52;45.41
69938;DHT22;57248;47.320;15.998;2022-08-03T08:07:38;28.15;47.21
69938;DHT22;57248;47.320;15.998;2022-08-03T08:10:05;29.34;45.05
69938;DHT22;57248;47.320;15.998;2022-08-03T08:12:31;31.70;41.19
69938;DHT22;57248;47.320;15.998;2022-08-03T08:14:56;33.37;35.39
69938;DHT22;57248;47.320;15.998;2022-08-03T08:17:22;32.04;39.66
69938;DHT22;57248;47.320;15.998;2022-08-03T08:19:47;32.90;37.26
69938;DHT22;57248;47.320;15.998;2022-08-03T08:22:13;32.71;38.89
69938;DHT22;57248;47.320;15.998;2022-08-03T08:24:38;35.85;33.27
69938;DHT22;57248;47.320;15.998;2022-08-03T08:27:04;34.08;32.02
69938;DHT22;57248;47.320;15.998;2022-08-03T08:29:29;35.03;30.63
69938;DHT22;57248;47.320;15.998;2022-08-03T08:31:55;35.57;31.04
69938;DHT22;57248;47.320;15.998;2022-08-03T08:34:20;36.13;30.34
69938;DHT22;57248;47.320;15.998;2022-08-03T08:36:46;36.51;31.26
69938;DHT22;57248;47.320;15.998;2022-08-03T08:39:11;37.90;29.37
69938;DHT22;57248;47.320;15.998;2022-08-03T08:41:37;36.09;31.86
69938;DHT22;57248;47.320;15.998;2022-08-03T08:44:03;37.04;28.17
69938;DHT22;57248;47.320;15.998;2022-08-03T08:46:31;37.63;27.93
69938;DHT22;57248;47.320;15.998;2022-08-03T08:48:58;36.19;29.30
69938;DHT22;57248;47.320;15.998;2022-08-03T08:51:28;36.91;28.12
69938;DHT22;57248;47.320;15.998;2022-08-03T08:53:56;37.38;27.94
69938;DHT22;57248;47.320;15.998;2022-08-03T08:56:25;37.63;26.44
69938;DHT22;57248;47.320;15.998;2022-08-03T12:23:55;42.16;20.80
69938;DHT22;57248;47.320;15.998;2022-08-03T12:26:23;45.36;18.38
69938;DHT22;57248;47.320;15.998;2022-08-03T12:28:50;47.46;17.15
69938;DHT22;57248;47.320;15.998;2022-08-03T12:31:16;46.91;18.22
69938;DHT22;57248;47.320;15.998;2022-08-03T12:36:21;43.90;19.77
69938;DHT22;57248;47.320;15.998;2022-08-03T12:38:57;45.41;18.10
69938;DHT22;57248;47.320;15.998;2022-08-03T12:41:31;44.13;19.87
69938;DHT22;57248;47.320;15.998;2022-08-03T12:43:58;44.39;19.58
69938;DHT22;57248;47.320;15.998;2022-08-03T12:46:30;43.00;20.09
69938;DHT22;57248;47.320;15.998;2022-08-03T12:49:07;45.68;17.74
69938;DHT22;57248;47.320;15.998;2022-08-03T12:54:14;48.01;16.82
69938;DHT22;57248;47.320;15.998;2022-08-03T12:57:16;48.71;17.10
69938;DHT22;57248;47.320;15.998;2022-08-03T12:59:44;47.33;18.14
69938;DHT22;57248;47.320;15.998;2022-08-03T13:02:19;50.80;15.57
69938;DHT22;57248;47.320;15.998;2022-08-03T13:04:46;50.49;16.30
69938;DHT22;57248;47.320;15.998;2022-08-03T13:07:12;48.16;16.88
69938;DHT22;57248;47.320;15.998;2022-08-03T13:12:22;47.26;16.85
69938;DHT22;57248;47.320;15.998;2022-08-03T13:14:50;50.36;16.53
69938;DHT22;57248;47.320;15.998;2022-08-03T13:17:16;47.69;17.01
69938;DHT22;57248;47.320;15.998;2022-08-03T13:19:42;48.72;16.61
69938;DHT22;57248;47.320;15.998;2022-08-03T13:22:23;46.60;17.69
69938;DHT22;57248;47.320;15.998;2022-08-03T13:24:50;46.05;17.93
69938;DHT22;57248;47.320;15.998;2022-08-03T13:27:17;46.62;17.84
69938;DHT22;57248;47.320;15.998;2022-08-03T13:29:42;45.80;17.86
69938;DHT22;57248;47.320;15.998;2022-08-03T13:32:09;45.96;18.20
69938;DHT22;57248;47.320;15.998;2022-08-03T13:34:36;47.74;17.26
69938;DHT22;57248;47.320;15.998;2022-08-03T13:37:02;47.49;17.08
69938;DHT22;57248;47.320;15.998;2022-08-03T13:39:27;46.71;17.36
69938;DHT22;57248;47.320;15.998;2022-08-03T13:41:53;46.87;17.60
69938;DHT22;57248;47.320;15.998;2022-08-03T13:44:18;50.48;15.97
69938;DHT22;57248;47.320;15.998;2022-08-03T13:46:45;46.40;17.88
69938;DHT22;57248;47.320;15.998;2022-08-03T13:49:10;48.18;16.44
69938;DHT22;57248;47.320;15.998;2022-08-03T13:51:36;49.63;16.54
69938;DHT22;57248;47.320;15.998;2022-08-03T13:54:02;45.93;18.15
69938;DHT22;57248;47.320;15.998;2022-08-03T13:56:28;46.91;17.40
69938;DHT22;57248;47.320;15.998;2022-08-03T13:58:54;46.24;17.70
69938;DHT22;57248;47.320;15.998;2022-08-03T14:01:20;44.66;19.13
69938;DHT22;57248;47.320;15.998;2022-08-03T14:03:46;43.75;19.32
69938;DHT22;57248;47.320;15.998;2022-08-03T14:06:14;42.35;19.99
69938;DHT22;57248;47.320;15.998;2022-08-03T14:08:40;46.27;18.29
69938;DHT22;57248;47.320;15.998;2022-08-03T14:11:05;45.96;18.26
69938;DHT22;57248;47.320;15.998;2022-08-03T14:13:31;46.90;17.82
69938;DHT22;57248;47.320;15.998;2022-08-03T14:15:57;46.25;17.95
69938;DHT22;57248;47.320;15.998;2022-08-03T14:18:22;44.57;18.82
69938;DHT22;57248;47.320;15.998;2022-08-03T14:20:48;42.77;19.96
69938;DHT22;57248;47.320;15.998;2022-08-03T14:23:14;47.15;18.22
69938;DHT22;57248;47.320;15.998;2022-08-03T14:25:40;48.25;16.52
69938;DHT22;57248;47.320;15.998;2022-08-03T14:28:06;44.72;19.08
69938;DHT22;57248;47.320;15.998;2022-08-03T14:30:32;42.50;20.29
69938;DHT22;57248;47.320;15.998;2022-08-03T14:32:58;43.83;19.66
69938;DHT22;57248;47.320;15.998;2022-08-03T14:35:24;46.25;19.36
69938;DHT22;57248;47.320;15.998;2022-08-03T14:37:49;45.11;18.58
69938;DHT22;57248;47.320;15.998;2022-08-03T14:40:17;45.25;18.73
69938;DHT22;57248;47.320;15.998;2022-08-03T14:42:42;46.12;18.57
69938;DHT22;57248;47.320;15.998;2022-08-03T14:45:08;43.31;20.29
69938;DHT22;57248;47.320;15.998;2022-08-03T14:47:34;40.14;22.54
69938;DHT22;57248;47.320;15.998;2022-08-03T14:49:59;41.75;21.39
69938;DHT22;57248;47.320;15.998;2022-08-03T14:52:28;42.25;20.62
69938;DHT22;57248;47.320;15.998;2022-08-03T14:54:53;36.68;27.24
69938;DHT22;57248;47.320;15.998;2022-08-03T14:57:19;36.46;27.64
69938;DHT22;57248;47.320;15.998;2022-08-03T14:59:44;37.77;26.11
69938;DHT22;57248;47.320;15.998;2022-08-03T15:02:10;34.42;29.67
69938;DHT22;57248;47.320;15.998;2022-08-03T15:04:35;33.92;29.80
69938;DHT22;57248;47.320;15.998;2022-08-03T15:07:01;34.86;29.82
69938;DHT22;57248;47.320;15.998;2022-08-03T15:09:27;33.81;30.79
69938;DHT22;57248;47.320;15.998;2022-08-03T15:11:52;33.98;30.35
69938;DHT22;57248;47.320;15.998;2022-08-03T15:14:18;34.50;29.83
69938;DHT22;57248;47.320;15.998;2022-08-03T15:16:43;34.89;30.25
69938;DHT22;57248;47.320;15.998;2022-08-03T15:19:09;34.57;30.19
69938;DHT22;57248;47.320;15.998;2022-08-03T15:21:34;34.25;30.96
69938;DHT22;57248;47.320;15.998;2022-08-03T15:24:01;34.43;30.02
69938;DHT22;57248;47.320;15.998;2022-08-03T15:26:27;34.36;31.46
69938;DHT22;57248;47.320;15.998;2022-08-03T15:28:52;34.62;31.52
69938;DHT22;57248;47.320;15.998;2022-08-03T15:31:22;33.91;34.44
69938;DHT22;57248;47.320;15.998;2022-08-03T15:33:47;34.26;33.86
69938;DHT22;57248;47.320;15.998;2022-08-03T15:36:17;34.50;33.94
69938;DHT22;57248;47.320;15.998;2022-08-03T15:38:44;34.42;33.59
69938;DHT22;57248;47.320;15.998;2022-08-03T15:41:11;34.69;35.02
69938;DHT22;57248;47.320;15.998;2022-08-03T15:43:36;34.60;35.24
69938;DHT22;57248;47.320;15.998;2022-08-03T15:46:02;34.31;36.13
69938;DHT22;57248;47.320;15.998;2022-08-03T15:48:27;34.79;35.30
69938;DHT22;57248;47.320;15.998;2022-08-03T15:50:53;34.55;34.56
69938;DHT22;57248;47.320;15.998;2022-08-03T15:53:19;34.48;37.73
69938;DHT22;57248;47.320;15.998;2022-08-03T15:55:45;34.46;31.91
69938;DHT22;57248;47.320;15.998;2022-08-03T15:58:10;34.94;32.48
69938;DHT22;57248;47.320;15.998;2022-08-03T16:00:37;34.66;30.78
69938;DHT22;57248;47.320;15.998;2022-08-03T16:03:03;34.79;30.98
69938;DHT22;57248;47.320;15.998;2022-08-03T16:05:28;35.04;31.19
69938;DHT22;57248;47.320;15.998;2022-08-03T16:07:55;34.38;33.75
69938;DHT22;57248;47.320;15.998;2022-08-03T16:10:20;33.82;35.12
69938;DHT22;57248;47.320;15.998;2022-08-03T16:12:47;33.03;35.40
69938;DHT22;57248;47.320;15.998;2022-08-03T16:15:13;33.09;34.53
69938;DHT22;57248;47.320;15.998;2022-08-03T16:17:39;33.40;34.22
69938;DHT22;57248;47.320;15.998;2022-08-03T16:20:06;32.83;34.93
69938;DHT22;57248;47.320;15.998;2022-08-03T16:22:33;32.95;35.47
69938;DHT22;57248;47.320;15.998;2022-08-03T16:24:58;32.98;33.41
69938;DHT22;57248;47.320;15.998;2022-08-03T16:27:25;32.96;34.30
69938;DHT22;57248;47.320;15.998;2022-08-03T16:29:50;32.86;33.45
69938;DHT22;57248;47.320;15.998;2022-08-03T16:32:16;32.55;34.59
69938;DHT22;57248;47.320;15.998;2022-08-03T16:34:42;32.44;35.19
69938;DHT22;57248;47.320;15.998;2022-08-03T16:37:08;31.77;34.87
69938;DHT22;57248;47.320;15.998;2022-08-03T16:39:33;31.40;35.32
69938;DHT22;57248;47.320;15.998;2022-08-03T16:41:59;31.57;35.98
69938;DHT22;57248;47.320;15.998;2022-08-03T16:44:27;31.39;37.80
69938;DHT22;57248;47.320;15.998;2022-08-03T16:46:53;31.40;38.25
69938;DHT22;57248;47.320;15.998;2022-08-03T16:49:18;31.80;38.11
69938;DHT22;57248;47.320;15.998;2022-08-03T16:51:44;31.69;38.94
69938;DHT22;57248;47.320;15.998;2022-08-03T16:54:09;31.86;38.21
69938;DHT22;57248;47.320;15.998;2022-08-03T16:56:35;31.46;38.53
69938;DHT22;57248;47.320;15.998;2022-08-03T16:59:02;30.36;38.84
69938;DHT22;57248;47.320;15.998;2022-08-03T17:01:28;30.26;39.14
69938;DHT22;57248;47.320;15.998;2022-08-03T17:03:56;30.79;39.72
69938;DHT22;57248;47.320;15.998;2022-08-03T17:06:23;31.02;40.87
69938;DHT22;57248;47.320;15.998;2022-08-03T17:08:49;30.94;40.74
69938;DHT22;57248;47.320;15.998;2022-08-03T17:11:14;30.78;40.50
69938;DHT22;57248;47.320;15.998;2022-08-03T17:13:40;30.69;41.04
69938;DHT22;57248;47.320;15.998;2022-08-03T17:16:08;30.53;40.11
69938;DHT22;57248;47.320;15.998;2022-08-03T17:18:57;30.44;39.88
69938;DHT22;57248;47.320;15.998;2022-08-03T17:21:26;30.33;41.13
69938;DHT22;57248;47.320;15.998;2022-08-03T17:23:57;30.09;41.67
69938;DHT22;57248;47.320;15.998;2022-08-03T17:26:25;30.19;42.11
69938;DHT22;57248;47.320;15.998;2022-08-03T17:28:51;29.89;44.16
69938;DHT22;57248;47.320;15.998;2022-08-03T17:31:18;29.72;46.50
69938;DHT22;57248;47.320;15.998;2022-08-03T17:33:45;29.30;49.36
69938;DHT22;57248;47.320;15.998;2022-08-03T17:36:12;29.10;49.14
69938;DHT22;57248;47.320;15.998;2022-08-03T17:38:40;29.11;48.98
69938;DHT22;57248;47.320;15.998;2022-08-03T17:41:06;28.84;49.97
69938;DHT22;57248;47.320;15.998;2022-08-03T17:43:33;28.89;49.31
69938;DHT22;57248;47.320;15.998;2022-08-03T17:45:58;28.93;50.20
69938;DHT22;57248;47.320;15.998;2022-08-03T17:48:24;28.52;50.95
69938;DHT22;57248;47.320;15.998;2022-08-03T17:50:58;28.09;50.26
69938;DHT22;57248;47.320;15.998;2022-08-03T17:53:28;28.31;49.88
69938;DHT22;57248;47.320;15.998;2022-08-03T17:57:23;28.31;49.67
69938;DHT22;57248;47.320;15.998;2022-08-03T17:59:26;27.82;50.31
69938;DHT22;57248;47.320;15.998;2022-08-03T18:02:08;27.65;50.83
69938;DHT22;57248;47.320;15.998;2022-08-03T18:05:03;27.37;52.13
69938;DHT22;57248;47.320;15.998;2022-08-03T18:07:40;27.36;51.93
69938;DHT22;57248;47.320;15.998;2022-08-03T18:10:10;27.00;51.66
69938;DHT22;57248;47.320;15.998;2022-08-03T18:13:02;26.69;51.67
69938;DHT22;57248;47.320;15.998;2022-08-03T18:18:16;26.55;53.84
69938;DHT22;57248;47.320;15.998;2022-08-03T18:20:43;26.38;54.08
69938;DHT22;57248;47.320;15.998;2022-08-03T18:23:11;25.93;55.14
69938;DHT22;57248;47.320;15.998;2022-08-03T18:25:39;25.61;55.80
69938;DHT22;57248;47.320;15.998;2022-08-03T18:28:07;25.73;56.20
69938;DHT22;57248;47.320;15.998;2022-08-03T18:30:36;25.72;56.59
69938;DHT22;57248;47.320;15.998;2022-08-03T18:33:03;25.45;56.23
69938;DHT22;57248;47.320;15.998;2022-08-03T18:35:31;25.49;55.15
69938;DHT22;57248;47.320;15.998;2022-08-03T18:38:01;25.46;56.40
69938;DHT22;57248;47.320;15.998;2022-08-03T18:40:27;25.04;56.80
69938;DHT22;57248;47.320;15.998;2022-08-03T18:42:53;25.25;56.62
69938;DHT22;57248;47.320;15.998;2022-08-03T18:45:20;25.19;57.83
69938;DHT22;57248;47.320;15.998;2022-08-03T18:50:33;24.86;60.33
69938;DHT22;57248;47.320;15.998;2022-08-03T18:55:31;24.83;60.49
69938;DHT22;57248;47.320;15.998;2022-08-03T18:58:04;24.63;59.57
69938;DHT22;57248;47.320;15.998;2022-08-03T19:00:36;24.64;60.00
69938;DHT22;57248;47.320;15.998;2022-08-03T19:03:06;24.53;60.91
69938;DHT22;57248;47.320;15.998;2022-08-03T19:05:57;24.08;63.52
69938;DHT22;57248;47.320;15.998;2022-08-03T19:11:35;23.58;63.64
69938;DHT22;57248;47.320;15.998;2022-08-03T19:14:01;23.46;63.99
69938;DHT22;57248;47.320;15.998;2022-08-03T19:16:38;23.33;65.35